sensor_id;sensor_type;location;lat;lon;timestamp;P1;durP1;ratioP1;P2;durP2;ratioP2
1957;SDS011;979;51.076;13.748;2022-08-07T00:02:13;13.90;;;13.30;;
1957;SDS011;979;51.076;13.748;2022-08-07T00:05:03;14.70;;;14.20;;
1957;SDS011;979;51.076;13.748;2022-08-07T00:07:32;14.30;;;13.90;;
1957;SDS011;979;51.076;13.748;2022-08-07T00:10:08;14.90;;;14.40;;
1957;SDS011;979;51.076;13.748;2022-08-07T00:12:52;14.80;;;14.30;;
1957;SDS011;979;51.076;13.748;2022-08-07T00:15:26;15.30;;;14.60;;
1957;SDS011;979;51.076;13.748;2022-08-07T00:18:11;14.97;;;14.43;;
1957;SDS011;979;51.076;13.748;2022-08-07T00:20:51;14.73;;;14.33;;
1957;SDS011;979;51.076;13.748;2022-08-07T00:23:22;14.40;;;14.00;;
1957;SDS011;979;51.076;13.748;2022-08-07T00:25:53;14.60;;;14.20;;
1957;SDS011;979;51.076;13.748;2022-08-07T00:28:28;14.50;;;14.10;;
1957;SDS011;979;51.076;13.748;2022-08-07T00:31:00;14.60;;;14.13;;
1957;SDS011;979;51.076;13.748;2022-08-07T00:33:32;14.40;;;14.00;;
1957;SDS011;979;51.076;13.748;2022-08-07T00:36:05;14.53;;;14.13;;
1957;SDS011;979;51.076;13.748;2022-08-07T00:38:35;14.50;;;14.10;;
1957;SDS011;979;51.076;13.748;2022-08-07T00:41:06;14.47;;;13.97;;
1957;SDS011;979;51.076;13.748;2022-08-07T00:43:40;14.77;;;14.27;;
1957;SDS011;979;51.076;13.748;2022-08-07T00:46:27;14.40;;;13.87;;
1957;SDS011;979;51.076;13.748;2022-08-07T00:48:59;14.67;;;14.17;;
1957;SDS011;979;51.076;13.748;2022-08-07T00:51:30;14.10;;;13.70;;
1957;SDS011;979;51.076;13.748;2022-08-07T00:54:18;14.57;;;14.07;;
1957;SDS011;979;51.076;13.748;2022-08-07T00:56:48;15.27;;;14.57;;
1957;SDS011;979;51.076;13.748;2022-08-07T00:59:17;14.83;;;14.27;;
1957;SDS011;979;51.076;13.748;2022-08-07T01:02:01;15.47;;;14.77;;
1957;SDS011;979;51.076;13.748;2022-08-07T01:04:34;14.47;;;13.97;;
1957;SDS011;979;51.076;13.748;2022-08-07T01:07:11;15.33;;;14.30;;
1957;SDS011;979;51.076;13.748;2022-08-07T01:09:41;14.77;;;14.17;;
1957;SDS011;979;51.076;13.748;2022-08-07T01:12:32;14.60;;;14.10;;
1957;SDS011;979;51.076;13.748;2022-08-07T01:15:01;15.10;;;14.60;;
1957;SDS011;979;51.076;13.748;2022-08-07T01:17:30;14.67;;;14.17;;
1957;SDS011;979;51.076;13.748;2022-08-07T01:20:01;14.90;;;14.30;;
1957;SDS011;979;51.076;13.748;2022-08-07T01:22:35;15.57;;;14.77;;
1957;SDS011;979;51.076;13.748;2022-08-07T01:25:24;14.73;;;14.03;;
1957;SDS011;979;51.076;13.748;2022-08-07T01:28:12;14.43;;;13.93;;
1957;SDS011;979;51.076;13.748;2022-08-07T01:30:43;14.47;;;13.97;;
1957;SDS011;979;51.076;13.748;2022-08-07T01:33:17;14.30;;;13.90;;
1957;SDS011;979;51.076;13.748;2022-08-07T01:35:48;13.93;;;13.50;;
1957;SDS011;979;51.076;13.748;2022-08-07T01:38:34;14.27;;;13.80;;
1957;SDS011;979;51.076;13.748;2022-08-07T01:41:11;15.10;;;14.40;;
1957;SDS011;979;51.076;13.748;2022-08-07T01:43:55;14.63;;;14.10;;
1957;SDS011;979;51.076;13.748;2022-08-07T01:46:26;14.23;;;13.83;;
1957;SDS011;979;51.076;13.748;2022-08-07T01:48:59;14.87;;;14.27;;
1957;SDS011;979;51.076;13.748;2022-08-07T01:51:28;14.50;;;14.10;;
1957;SDS011;979;51.076;13.748;2022-08-07T01:54:19;14.40;;;13.73;;
1957;SDS011;979;51.076;13.748;2022-08-07T01:57:06;14.80;;;14.10;;
1957;SDS011;979;51.076;13.748;2022-08-07T02:00:03;15.30;;;14.50;;
1957;SDS011;979;51.076;13.748;2022-08-07T02:02:41;14.33;;;13.93;;
1957;SDS011;979;51.076;13.748;2022-08-07T02:05:33;14.17;;;13.67;;
1957;SDS011;979;51.076;13.748;2022-08-07T02:08:18;13.77;;;13.37;;
1957;SDS011;979;51.076;13.748;2022-08-07T02:10:52;14.37;;;13.67;;
1957;SDS011;979;51.076;13.748;2022-08-07T02:13:28;14.50;;;13.90;;
1957;SDS011;979;51.076;13.748;2022-08-07T02:16:24;14.37;;;13.87;;
1957;SDS011;979;51.076;13.748;2022-08-07T02:18:59;14.23;;;13.73;;
1957;SDS011;979;51.076;13.748;2022-08-07T02:21:53;15.07;;;14.27;;
1957;SDS011;979;51.076;13.748;2022-08-07T02:24:27;14.40;;;14.00;;
1957;SDS011;979;51.076;13.748;2022-08-07T02:26:57;14.57;;;14.07;;
1957;SDS011;979;51.076;13.748;2022-08-07T02:29:30;14.63;;;14.10;;
1957;SDS011;979;51.076;13.748;2022-08-07T02:32:16;14.50;;;13.90;;
1957;SDS011;979;51.076;13.748;2022-08-07T02:34:54;13.43;;;13.03;;
1957;SDS011;979;51.076;13.748;2022-08-07T02:37:27;13.40;;;13.00;;
1957;SDS011;979;51.076;13.748;2022-08-07T02:40:05;14.70;;;14.20;;
1957;SDS011;979;51.076;13.748;2022-08-07T02:42:58;13.70;;;13.20;;
1957;SDS011;979;51.076;13.748;2022-08-07T02:45:33;13.97;;;13.57;;
1957;SDS011;979;51.076;13.748;2022-08-07T02:48:25;13.97;;;13.57;;
1957;SDS011;979;51.076;13.748;2022-08-07T02:50:55;14.73;;;14.17;;
1957;SDS011;979;51.076;13.748;2022-08-07T02:53:27;14.93;;;14.40;;
1957;SDS011;979;51.076;13.748;2022-08-07T02:56:07;14.40;;;14.00;;
1957;SDS011;979;51.076;13.748;2022-08-07T02:58:51;14.67;;;14.17;;
1957;SDS011;979;51.076;13.748;2022-08-07T03:01:23;14.53;;;13.93;;
1957;SDS011;979;51.076;13.748;2022-08-07T03:04:04;14.77;;;14.30;;
1957;SDS011;979;51.076;13.748;2022-08-07T03:06:42;14.40;;;14.00;;
1957;SDS011;979;51.076;13.748;2022-08-07T03:09:14;14.83;;;14.33;;
1957;SDS011;979;51.076;13.748;2022-08-07T03:12:05;12.50;;;12.20;;
1957;SDS011;979;51.076;13.748;2022-08-07T03:14:49;15.03;;;14.43;;
1957;SDS011;979;51.076;13.748;2022-08-07T03:17:19;14.47;;;13.87;;
1957;SDS011;979;51.076;13.748;2022-08-07T03:19:48;14.20;;;13.70;;
1957;SDS011;979;51.076;13.748;2022-08-07T03:22:24;14.90;;;14.50;;
1957;SDS011;979;51.076;13.748;2022-08-07T03:24:56;14.57;;;14.07;;
1957;SDS011;979;51.076;13.748;2022-08-07T03:27:32;14.57;;;13.97;;
1957;SDS011;979;51.076;13.748;2022-08-07T03:30:24;15.07;;;14.50;;
1957;SDS011;979;51.076;13.748;2022-08-07T03:32:53;14.40;;;13.90;;
1957;SDS011;979;51.076;13.748;2022-08-07T03:35:28;14.60;;;14.10;;
1957;SDS011;979;51.076;13.748;2022-08-07T03:38:15;14.13;;;13.67;;
1957;SDS011;979;51.076;13.748;2022-08-07T03:40:48;14.50;;;14.10;;
1957;SDS011;979;51.076;13.748;2022-08-07T03:43:24;13.10;;;12.70;;
1957;SDS011;979;51.076;13.748;2022-08-07T03:46:00;14.13;;;13.73;;
1957;SDS011;979;51.076;13.748;2022-08-07T03:48:45;14.30;;;13.90;;
1957;SDS011;979;51.076;13.748;2022-08-07T03:51:34;14.20;;;13.80;;
1957;SDS011;979;51.076;13.748;2022-08-07T03:54:15;15.57;;;14.90;;
1957;SDS011;979;51.076;13.748;2022-08-07T03:57:06;14.40;;;14.00;;
1957;SDS011;979;51.076;13.748;2022-08-07T03:59:58;14.20;;;13.80;;
1957;SDS011;979;51.076;13.748;2022-08-07T04:02:42;14.37;;;13.87;;
1957;SDS011;979;51.076;13.748;2022-08-07T04:05:29;14.37;;;13.97;;
1957;SDS011;979;51.076;13.748;2022-08-07T04:08:14;14.73;;;14.20;;
1957;SDS011;979;51.076;13.748;2022-08-07T04:10:47;14.97;;;14.47;;
1957;SDS011;979;51.076;13.748;2022-08-07T04:13:37;15.37;;;14.67;;
1957;SDS011;979;51.076;13.748;2022-08-07T04:16:27;14.40;;;13.90;;
1957;SDS011;979;51.076;13.748;2022-08-07T04:19:02;13.93;;;13.63;;
1957;SDS011;979;51.076;13.748;2022-08-07T04:21:47;14.30;;;13.90;;
1957;SDS011;979;51.076;13.748;2022-08-07T04:24:29;14.77;;;14.37;;
1957;SDS011;979;51.076;13.748;2022-08-07T04:27:03;13.93;;;13.53;;
1957;SDS011;979;51.076;13.748;2022-08-07T04:29:49;14.10;;;13.70;;
1957;SDS011;979;51.076;13.748;2022-08-07T04:32:37;14.60;;;13.90;;
1957;SDS011;979;51.076;13.748;2022-08-07T04:35:15;13.80;;;13.50;;
1957;SDS011;979;51.076;13.748;2022-08-07T04:37:48;13.87;;;13.47;;
1957;SDS011;979;51.076;13.748;2022-08-07T04:40:33;13.63;;;13.23;;
1957;SDS011;979;51.076;13.748;2022-08-07T04:43:20;13.83;;;13.33;;
1957;SDS011;979;51.076;13.748;2022-08-07T04:46:17;14.13;;;13.63;;
1957;SDS011;979;51.076;13.748;2022-08-07T04:49:06;14.23;;;13.83;;
1957;SDS011;979;51.076;13.748;2022-08-07T04:51:55;14.40;;;13.80;;
1957;SDS011;979;51.076;13.748;2022-08-07T04:54:31;14.60;;;14.10;;
1957;SDS011;979;51.076;13.748;2022-08-07T04:57:21;14.30;;;13.90;;
1957;SDS011;979;51.076;13.748;2022-08-07T05:00:16;13.97;;;13.50;;
1957;SDS011;979;51.076;13.748;2022-08-07T05:02:59;14.47;;;13.97;;
1957;SDS011;979;51.076;13.748;2022-08-07T05:05:52;14.30;;;13.83;;
1957;SDS011;979;51.076;13.748;2022-08-07T05:08:51;14.30;;;13.80;;
1957;SDS011;979;51.076;13.748;2022-08-07T05:11:34;14.40;;;13.90;;
1957;SDS011;979;51.076;13.748;2022-08-07T05:14:30;15.17;;;14.67;;
1957;SDS011;979;51.076;13.748;2022-08-07T05:17:22;14.50;;;14.10;;
1957;SDS011;979;51.076;13.748;2022-08-07T05:20:16;14.80;;;14.20;;
1957;SDS011;979;51.076;13.748;2022-08-07T05:22:53;14.60;;;14.10;;
1957;SDS011;979;51.076;13.748;2022-08-07T05:25:29;14.37;;;13.97;;
1957;SDS011;979;51.076;13.748;2022-08-07T05:28:22;14.60;;;13.90;;
1957;SDS011;979;51.076;13.748;2022-08-07T05:30:54;14.40;;;13.83;;
1957;SDS011;979;51.076;13.748;2022-08-07T05:33:27;14.30;;;13.90;;
1957;SDS011;979;51.076;13.748;2022-08-07T05:36:02;14.67;;;14.17;;
1957;SDS011;979;51.076;13.748;2022-08-07T05:38:38;15.07;;;14.47;;
1957;SDS011;979;51.076;13.748;2022-08-07T05:41:33;14.57;;;14.07;;
1957;SDS011;979;51.076;13.748;2022-08-07T05:44:22;14.53;;;14.10;;
1957;SDS011;979;51.076;13.748;2022-08-07T05:46:57;14.90;;;14.37;;
1957;SDS011;979;51.076;13.748;2022-08-07T05:49:46;14.80;;;14.30;;
1957;SDS011;979;51.076;13.748;2022-08-07T05:52:18;15.47;;;14.87;;
1957;SDS011;979;51.076;13.748;2022-08-07T05:55:00;15.10;;;14.60;;
1957;SDS011;979;51.076;13.748;2022-08-07T05:57:40;14.40;;;13.90;;
1957;SDS011;979;51.076;13.748;2022-08-07T06:00:12;16.83;;;16.13;;
1957;SDS011;979;51.076;13.748;2022-08-07T06:02:48;14.83;;;14.23;;
1957;SDS011;979;51.076;13.748;2022-08-07T06:05:20;14.70;;;14.20;;
1957;SDS011;979;51.076;13.748;2022-08-07T06:07:58;14.43;;;14.03;;
1957;SDS011;979;51.076;13.748;2022-08-07T06:10:48;14.30;;;13.90;;
1957;SDS011;979;51.076;13.748;2022-08-07T06:13:24;14.23;;;13.43;;
1957;SDS011;979;51.076;13.748;2022-08-07T06:16:13;13.57;;;13.17;;
1957;SDS011;979;51.076;13.748;2022-08-07T06:18:45;14.57;;;14.07;;
1957;SDS011;979;51.076;13.748;2022-08-07T06:21:22;14.40;;;13.90;;
1957;SDS011;979;51.076;13.748;2022-08-07T06:24:12;14.60;;;14.10;;
1957;SDS011;979;51.076;13.748;2022-08-07T06:27:00;14.47;;;14.07;;
1957;SDS011;979;51.076;13.748;2022-08-07T06:29:33;14.30;;;13.90;;
1957;SDS011;979;51.076;13.748;2022-08-07T06:32:05;14.40;;;13.90;;
1957;SDS011;979;51.076;13.748;2022-08-07T06:34:33;15.00;;;14.50;;
1957;SDS011;979;51.076;13.748;2022-08-07T06:37:06;14.10;;;13.70;;
1957;SDS011;979;51.076;13.748;2022-08-07T06:39:37;14.43;;;13.90;;
1957;SDS011;979;51.076;13.748;2022-08-07T06:42:32;14.90;;;14.40;;
1957;SDS011;979;51.076;13.748;2022-08-07T06:45:36;14.10;;;13.50;;
1957;SDS011;979;51.076;13.748;2022-08-07T06:48:11;13.37;;;12.87;;
1957;SDS011;979;51.076;13.748;2022-08-07T06:50:43;14.50;;;13.90;;
1957;SDS011;979;51.076;13.748;2022-08-07T06:53:16;14.10;;;13.60;;
1957;SDS011;979;51.076;13.748;2022-08-07T06:56:11;14.80;;;14.27;;
1957;SDS011;979;51.076;13.748;2022-08-07T06:58:44;14.70;;;14.30;;
1957;SDS011;979;51.076;13.748;2022-08-07T07:01:41;14.20;;;13.80;;
1957;SDS011;979;51.076;13.748;2022-08-07T07:04:16;14.63;;;13.93;;
1957;SDS011;979;51.076;13.748;2022-08-07T07:07:00;14.80;;;14.30;;
1957;SDS011;979;51.076;13.748;2022-08-07T07:09:48;14.50;;;13.90;;
1957;SDS011;979;51.076;13.748;2022-08-07T07:12:21;13.97;;;13.57;;
1957;SDS011;979;51.076;13.748;2022-08-07T07:14:59;14.07;;;13.50;;
1957;SDS011;979;51.076;13.748;2022-08-07T07:17:44;13.87;;;13.57;;
1957;SDS011;979;51.076;13.748;2022-08-07T07:20:22;14.80;;;14.30;;
1957;SDS011;979;51.076;13.748;2022-08-07T07:22:56;14.33;;;13.83;;
1957;SDS011;979;51.076;13.748;2022-08-07T07:25:46;13.90;;;13.50;;
1957;SDS011;979;51.076;13.748;2022-08-07T07:28:38;14.10;;;13.50;;
1957;SDS011;979;51.076;13.748;2022-08-07T07:31:33;15.00;;;14.50;;
1957;SDS011;979;51.076;13.748;2022-08-07T07:34:13;14.30;;;13.70;;
1957;SDS011;979;51.076;13.748;2022-08-07T07:36:47;14.50;;;14.00;;
1957;SDS011;979;51.076;13.748;2022-08-07T07:39:19;14.60;;;14.10;;
1957;SDS011;979;51.076;13.748;2022-08-07T07:41:53;15.00;;;14.40;;
1957;SDS011;979;51.076;13.748;2022-08-07T07:44:42;15.60;;;14.80;;
1957;SDS011;979;51.076;13.748;2022-08-07T07:47:15;14.63;;;14.07;;
1957;SDS011;979;51.076;13.748;2022-08-07T07:49:51;15.37;;;14.80;;
1957;SDS011;979;51.076;13.748;2022-08-07T07:52:40;15.00;;;14.27;;
1957;SDS011;979;51.076;13.748;2022-08-07T07:55:12;14.40;;;13.90;;
1957;SDS011;979;51.076;13.748;2022-08-07T07:57:45;14.53;;;14.07;;
1957;SDS011;979;51.076;13.748;2022-08-07T08:00:19;14.20;;;13.80;;
1957;SDS011;979;51.076;13.748;2022-08-07T08:02:58;13.33;;;12.93;;
1957;SDS011;979;51.076;13.748;2022-08-07T08:05:34;14.43;;;13.90;;
1957;SDS011;979;51.076;13.748;2022-08-07T08:08:21;14.10;;;13.60;;
1957;SDS011;979;51.076;13.748;2022-08-07T08:11:02;13.77;;;13.37;;
1957;SDS011;979;51.076;13.748;2022-08-07T08:13:43;14.30;;;13.90;;
1957;SDS011;979;51.076;13.748;2022-08-07T08:16:23;12.53;;;12.10;;
1957;SDS011;979;51.076;13.748;2022-08-07T08:18:57;13.40;;;13.00;;
1957;SDS011;979;51.076;13.748;2022-08-07T08:21:47;13.87;;;13.30;;
1957;SDS011;979;51.076;13.748;2022-08-07T08:24:36;13.73;;;13.33;;
1957;SDS011;979;51.076;13.748;2022-08-07T08:27:46;12.77;;;12.37;;
1957;SDS011;979;51.076;13.748;2022-08-07T08:30:26;13.30;;;12.90;;
1957;SDS011;979;51.076;13.748;2022-08-07T08:33:00;13.50;;;13.10;;
1957;SDS011;979;51.076;13.748;2022-08-07T08:35:43;13.03;;;12.73;;
1957;SDS011;979;51.076;13.748;2022-08-07T08:38:20;12.63;;;12.27;;
1957;SDS011;979;51.076;13.748;2022-08-07T08:40:56;14.20;;;13.60;;
1957;SDS011;979;51.076;13.748;2022-08-07T08:43:34;13.40;;;13.00;;
1957;SDS011;979;51.076;13.748;2022-08-07T08:46:09;12.97;;;12.67;;
1957;SDS011;979;51.076;13.748;2022-08-07T08:48:49;13.33;;;12.87;;
1957;SDS011;979;51.076;13.748;2022-08-07T08:51:31;12.70;;;12.20;;
1957;SDS011;979;51.076;13.748;2022-08-07T08:54:30;12.83;;;12.43;;
1957;SDS011;979;51.076;13.748;2022-08-07T08:57:11;13.20;;;12.80;;
1957;SDS011;979;51.076;13.748;2022-08-07T08:59:48;13.23;;;12.93;;
1957;SDS011;979;51.076;13.748;2022-08-07T09:02:28;13.20;;;12.70;;
1957;SDS011;979;51.076;13.748;2022-08-07T09:05:12;12.83;;;12.53;;
1957;SDS011;979;51.076;13.748;2022-08-07T09:08:10;12.93;;;12.53;;
1957;SDS011;979;51.076;13.748;2022-08-07T09:11:01;13.47;;;13.17;;
1957;SDS011;979;51.076;13.748;2022-08-07T09:14:02;13.77;;;13.37;;
1957;SDS011;979;51.076;13.748;2022-08-07T09:16:43;12.97;;;12.57;;
1957;SDS011;979;51.076;13.748;2022-08-07T09:19:23;13.20;;;12.80;;
1957;SDS011;979;51.076;13.748;2022-08-07T09:22:33;13.10;;;12.70;;
1957;SDS011;979;51.076;13.748;2022-08-07T09:25:38;13.20;;;12.70;;
1957;SDS011;979;51.076;13.748;2022-08-07T09:28:26;13.33;;;12.77;;
1957;SDS011;979;51.076;13.748;2022-08-07T09:31:24;13.17;;;12.77;;
1957;SDS011;979;51.076;13.748;2022-08-07T09:34:08;12.50;;;12.03;;
1957;SDS011;979;51.076;13.748;2022-08-07T09:36:55;12.87;;;12.57;;
1957;SDS011;979;51.076;13.748;2022-08-07T09:39:45;12.67;;;12.37;;
1957;SDS011;979;51.076;13.748;2022-08-07T09:42:26;13.00;;;12.67;;
1957;SDS011;979;51.076;13.748;2022-08-07T09:45:10;13.27;;;12.87;;
1957;SDS011;979;51.076;13.748;2022-08-07T09:48:05;13.40;;;13.00;;
1957;SDS011;979;51.076;13.748;2022-08-07T09:50:51;12.97;;;12.57;;
1957;SDS011;979;51.076;13.748;2022-08-07T09:53:42;12.90;;;12.43;;
1957;SDS011;979;51.076;13.748;2022-08-07T09:56:30;13.77;;;13.10;;
1957;SDS011;979;51.076;13.748;2022-08-07T09:59:25;14.83;;;14.33;;
1957;SDS011;979;51.076;13.748;2022-08-07T10:02:36;13.80;;;13.30;;
1957;SDS011;979;51.076;13.748;2022-08-07T10:05:25;13.50;;;13.10;;
1957;SDS011;979;51.076;13.748;2022-08-07T10:08:30;13.47;;;13.07;;
1957;SDS011;979;51.076;13.748;2022-08-07T10:11:19;13.37;;;12.97;;
1957;SDS011;979;51.076;13.748;2022-08-07T10:14:23;13.13;;;12.83;;
1957;SDS011;979;51.076;13.748;2022-08-07T10:17:11;13.00;;;12.60;;
1957;SDS011;979;51.076;13.748;2022-08-07T10:20:20;13.27;;;12.97;;
1957;SDS011;979;51.076;13.748;2022-08-07T10:23:02;13.33;;;12.93;;
1957;SDS011;979;51.076;13.748;2022-08-07T10:26:12;14.20;;;13.70;;
1957;SDS011;979;51.076;13.748;2022-08-07T10:29:04;13.43;;;13.13;;
1957;SDS011;979;51.076;13.748;2022-08-07T10:31:48;12.97;;;12.47;;
1957;SDS011;979;51.076;13.748;2022-08-07T10:34:56;12.90;;;12.60;;
1957;SDS011;979;51.076;13.748;2022-08-07T10:37:44;12.70;;;12.40;;
1957;SDS011;979;51.076;13.748;2022-08-07T10:40:44;11.90;;;11.60;;
1957;SDS011;979;51.076;13.748;2022-08-07T10:43:18;12.20;;;11.90;;
1957;SDS011;979;51.076;13.748;2022-08-07T10:46:06;11.60;;;11.30;;
1957;SDS011;979;51.076;13.748;2022-08-07T10:48:45;12.03;;;11.53;;
1957;SDS011;979;51.076;13.748;2022-08-07T10:51:27;11.90;;;11.50;;
1957;SDS011;979;51.076;13.748;2022-08-07T10:54:28;11.70;;;11.30;;
1957;SDS011;979;51.076;13.748;2022-08-07T10:57:23;11.67;;;11.37;;
1957;SDS011;979;51.076;13.748;2022-08-07T11:00:07;12.10;;;11.70;;
1957;SDS011;979;51.076;13.748;2022-08-07T11:03:04;18.40;;;17.50;;
1957;SDS011;979;51.076;13.748;2022-08-07T11:05:44;11.90;;;11.60;;
1957;SDS011;979;51.076;13.748;2022-08-07T11:08:28;12.23;;;11.93;;
1957;SDS011;979;51.076;13.748;2022-08-07T11:11:09;10.10;;;9.90;;
1957;SDS011;979;51.076;13.748;2022-08-07T11:13:47;9.63;;;9.43;;
1957;SDS011;979;51.076;13.748;2022-08-07T11:16:40;9.70;;;9.40;;
1957;SDS011;979;51.076;13.748;2022-08-07T11:19:26;10.50;;;10.10;;
1957;SDS011;979;51.076;13.748;2022-08-07T11:22:07;11.43;;;11.13;;
1957;SDS011;979;51.076;13.748;2022-08-07T11:24:59;10.60;;;10.40;;
1957;SDS011;979;51.076;13.748;2022-08-07T11:27:41;11.03;;;10.83;;
1957;SDS011;979;51.076;13.748;2022-08-07T11:30:32;10.80;;;10.50;;
1957;SDS011;979;51.076;13.748;2022-08-07T11:33:15;10.70;;;10.40;;
1957;SDS011;979;51.076;13.748;2022-08-07T11:36:15;11.33;;;11.03;;
1957;SDS011;979;51.076;13.748;2022-08-07T11:39:04;11.70;;;11.40;;
1957;SDS011;979;51.076;13.748;2022-08-07T11:41:47;11.50;;;11.20;;
1957;SDS011;979;51.076;13.748;2022-08-07T11:44:35;11.57;;;11.27;;
1957;SDS011;979;51.076;13.748;2022-08-07T11:50:42;12.17;;;11.77;;
1957;SDS011;979;51.076;13.748;2022-08-07T11:53:26;11.90;;;11.60;;
1957;SDS011;979;51.076;13.748;2022-08-07T11:56:28;11.80;;;11.30;;
1957;SDS011;979;51.076;13.748;2022-08-07T11:59:14;11.60;;;11.30;;
1957;SDS011;979;51.076;13.748;2022-08-07T12:02:27;12.03;;;11.70;;
1957;SDS011;979;51.076;13.748;2022-08-07T12:05:18;11.87;;;11.57;;
1957;SDS011;979;51.076;13.748;2022-08-07T12:08:08;11.67;;;11.37;;
1957;SDS011;979;51.076;13.748;2022-08-07T12:11:02;12.57;;;12.27;;
1957;SDS011;979;51.076;13.748;2022-08-07T12:13:49;12.43;;;12.00;;
1957;SDS011;979;51.076;13.748;2022-08-07T12:16:26;11.53;;;11.33;;
1957;SDS011;979;51.076;13.748;2022-08-07T12:19:04;12.00;;;11.53;;
1957;SDS011;979;51.076;13.748;2022-08-07T12:21:49;11.80;;;11.50;;
1957;SDS011;979;51.076;13.748;2022-08-07T12:24:46;11.90;;;11.40;;
1957;SDS011;979;51.076;13.748;2022-08-07T12:27:57;11.70;;;11.40;;
1957;SDS011;979;51.076;13.748;2022-08-07T12:30:36;12.77;;;12.33;;
1957;SDS011;979;51.076;13.748;2022-08-07T12:33:14;12.00;;;11.70;;
1957;SDS011;979;51.076;13.748;2022-08-07T12:35:57;12.50;;;12.20;;
1957;SDS011;979;51.076;13.748;2022-08-07T12:38:36;12.00;;;11.60;;
1957;SDS011;979;51.076;13.748;2022-08-07T12:41:08;12.40;;;11.80;;
1957;SDS011;979;51.076;13.748;2022-08-07T12:43:39;9.60;;;9.30;;
1957;SDS011;979;51.076;13.748;2022-08-07T12:46:39;9.48;;;9.27;;
1957;SDS011;979;51.076;13.748;2022-08-07T12:49:20;10.70;;;10.50;;
1957;SDS011;979;51.076;13.748;2022-08-07T12:52:23;11.63;;;11.33;;
1957;SDS011;979;51.076;13.748;2022-08-07T12:55:04;11.00;;;10.70;;
1957;SDS011;979;51.076;13.748;2022-08-07T12:57:42;10.77;;;10.47;;
1957;SDS011;979;51.076;13.748;2022-08-07T13:00:29;11.47;;;11.17;;
1957;SDS011;979;51.076;13.748;2022-08-07T13:06:32;11.37;;;11.17;;
1957;SDS011;979;51.076;13.748;2022-08-07T13:09:30;11.13;;;10.87;;
1957;SDS011;979;51.076;13.748;2022-08-07T13:12:31;11.03;;;10.73;;
1957;SDS011;979;51.076;13.748;2022-08-07T13:15:15;12.10;;;11.70;;
1957;SDS011;979;51.076;13.748;2022-08-07T13:17:59;11.10;;;10.80;;
1957;SDS011;979;51.076;13.748;2022-08-07T13:21:04;12.23;;;11.93;;
1957;SDS011;979;51.076;13.748;2022-08-07T13:24:02;11.13;;;10.93;;
1957;SDS011;979;51.076;13.748;2022-08-07T13:26:42;11.30;;;10.80;;
1957;SDS011;979;51.076;13.748;2022-08-07T13:29:22;10.53;;;10.23;;
1957;SDS011;979;51.076;13.748;2022-08-07T13:32:04;11.03;;;10.63;;
1957;SDS011;979;51.076;13.748;2022-08-07T13:34:59;11.50;;;11.00;;
1957;SDS011;979;51.076;13.748;2022-08-07T13:37:36;11.50;;;10.90;;
1957;SDS011;979;51.076;13.748;2022-08-07T13:40:24;11.10;;;10.90;;
1957;SDS011;979;51.076;13.748;2022-08-07T13:43:13;11.37;;;10.93;;
1957;SDS011;979;51.076;13.748;2022-08-07T13:45:51;11.00;;;10.80;;
1957;SDS011;979;51.076;13.748;2022-08-07T13:48:43;11.83;;;11.53;;
1957;SDS011;979;51.076;13.748;2022-08-07T13:51:24;11.10;;;10.90;;
1957;SDS011;979;51.076;13.748;2022-08-07T13:54:28;11.40;;;11.10;;
1957;SDS011;979;51.076;13.748;2022-08-07T13:56:59;11.87;;;11.10;;
1957;SDS011;979;51.076;13.748;2022-08-07T13:59:41;10.83;;;10.53;;
1957;SDS011;979;51.076;13.748;2022-08-07T14:02:21;10.50;;;10.30;;
1957;SDS011;979;51.076;13.748;2022-08-07T14:05:06;11.20;;;10.80;;
1957;SDS011;979;51.076;13.748;2022-08-07T14:07:39;10.90;;;10.70;;
1957;SDS011;979;51.076;13.748;2022-08-07T14:10:30;11.13;;;10.87;;
1957;SDS011;979;51.076;13.748;2022-08-07T14:13:07;11.30;;;11.10;;
1957;SDS011;979;51.076;13.748;2022-08-07T14:15:50;10.93;;;10.70;;
1957;SDS011;979;51.076;13.748;2022-08-07T14:18:26;11.17;;;10.97;;
1957;SDS011;979;51.076;13.748;2022-08-07T14:21:04;11.87;;;11.50;;
1957;SDS011;979;51.076;13.748;2022-08-07T14:24:02;11.83;;;11.53;;
1957;SDS011;979;51.076;13.748;2022-08-07T14:26:42;11.97;;;11.57;;
1957;SDS011;979;51.076;13.748;2022-08-07T14:29:22;11.60;;;11.30;;
1957;SDS011;979;51.076;13.748;2022-08-07T14:32:15;10.70;;;10.40;;
1957;SDS011;979;51.076;13.748;2022-08-07T14:34:50;10.77;;;10.53;;
1957;SDS011;979;51.076;13.748;2022-08-07T14:37:21;11.57;;;11.27;;
1957;SDS011;979;51.076;13.748;2022-08-07T14:40:05;13.13;;;12.27;;
1957;SDS011;979;51.076;13.748;2022-08-07T14:42:54;12.17;;;11.87;;
1957;SDS011;979;51.076;13.748;2022-08-07T14:45:45;11.07;;;10.87;;
1957;SDS011;979;51.076;13.748;2022-08-07T14:48:19;11.33;;;11.13;;
1957;SDS011;979;51.076;13.748;2022-08-07T14:50:53;11.20;;;11.00;;
1957;SDS011;979;51.076;13.748;2022-08-07T14:53:28;11.70;;;11.30;;
1957;SDS011;979;51.076;13.748;2022-08-07T14:56:19;11.53;;;11.13;;
1957;SDS011;979;51.076;13.748;2022-08-07T14:58:56;11.00;;;10.70;;
1957;SDS011;979;51.076;13.748;2022-08-07T15:01:51;11.30;;;10.90;;
1957;SDS011;979;51.076;13.748;2022-08-07T15:04:29;11.33;;;11.03;;
1957;SDS011;979;51.076;13.748;2022-08-07T15:07:19;11.23;;;10.97;;
1957;SDS011;979;51.076;13.748;2022-08-07T15:10:15;10.93;;;10.63;;
1957;SDS011;979;51.076;13.748;2022-08-07T15:13:07;11.00;;;10.70;;
1957;SDS011;979;51.076;13.748;2022-08-07T15:15:43;11.20;;;10.90;;
1957;SDS011;979;51.076;13.748;2022-08-07T15:18:21;11.50;;;11.20;;
1957;SDS011;979;51.076;13.748;2022-08-07T15:21:04;12.00;;;11.70;;
1957;SDS011;979;51.076;13.748;2022-08-07T15:24:03;11.10;;;10.70;;
1957;SDS011;979;51.076;13.748;2022-08-07T15:27:02;10.70;;;10.50;;
1957;SDS011;979;51.076;13.748;2022-08-07T15:29:38;10.63;;;10.40;;
1957;SDS011;979;51.076;13.748;2022-08-07T15:32:28;11.20;;;11.00;;
1957;SDS011;979;51.076;13.748;2022-08-07T15:35:18;11.83;;;11.50;;
1957;SDS011;979;51.076;13.748;2022-08-07T15:38:09;10.97;;;10.77;;
1957;SDS011;979;51.076;13.748;2022-08-07T15:41:00;11.10;;;10.80;;
1957;SDS011;979;51.076;13.748;2022-08-07T15:43:56;10.20;;;10.00;;
1957;SDS011;979;51.076;13.748;2022-08-07T15:46:26;12.07;;;11.70;;
1957;SDS011;979;51.076;13.748;2022-08-07T15:49:05;12.03;;;11.57;;
1957;SDS011;979;51.076;13.748;2022-08-07T15:52:01;10.77;;;10.57;;
1957;SDS011;979;51.076;13.748;2022-08-07T15:54:34;11.63;;;11.33;;
1957;SDS011;979;51.076;13.748;2022-08-07T15:57:06;11.50;;;11.20;;
1957;SDS011;979;51.076;13.748;2022-08-07T15:59:59;11.03;;;10.73;;
1957;SDS011;979;51.076;13.748;2022-08-07T16:02:34;10.80;;;10.60;;
1957;SDS011;979;51.076;13.748;2022-08-07T16:05:12;11.80;;;11.20;;
1957;SDS011;979;51.076;13.748;2022-08-07T16:07:52;11.00;;;10.80;;
1957;SDS011;979;51.076;13.748;2022-08-07T16:10:44;11.10;;;10.80;;
1957;SDS011;979;51.076;13.748;2022-08-07T16:13:29;11.50;;;11.20;;
1957;SDS011;979;51.076;13.748;2022-08-07T16:19:36;11.20;;;10.80;;
1957;SDS011;979;51.076;13.748;2022-08-07T16:22:34;11.43;;;11.07;;
1957;SDS011;979;51.076;13.748;2022-08-07T16:25:28;12.10;;;11.80;;
1957;SDS011;979;51.076;13.748;2022-08-07T16:28:28;12.27;;;11.87;;
1957;SDS011;979;51.076;13.748;2022-08-07T16:31:38;11.53;;;11.23;;
1957;SDS011;979;51.076;13.748;2022-08-07T16:34:25;11.97;;;11.67;;
1957;SDS011;979;51.076;13.748;2022-08-07T16:40:33;12.00;;;11.60;;